sensor_id;sensor_type;location;lat;lon;timestamp;pressure;altitude;pressure_sealevel;temperature;humidity
13407;BME280;6774;48.208;10.766;2022-09-12T00:00:26;95754.84;;;12.40;86.56
13407;BME280;6774;48.208;10.766;2022-09-12T00:02:55;95755.59;;;12.34;86.37
13407;BME280;6774;48.208;10.766;2022-09-12T00:05:23;95755.59;;;12.27;86.40
13407;BME280;6774;48.208;10.766;2022-09-12T00:07:50;95753.06;;;12.19;86.57
13407;BME280;6774;48.208;10.766;2022-09-12T00:10:18;95751.25;;;12.19;86.70
13407;BME280;6774;48.208;10.766;2022-09-12T00:12:47;95751.88;;;12.21;86.68
13407;BME280;6774;48.208;10.766;2022-09-12T00:15:15;95741.66;;;12.18;86.69
13407;BME280;6774;48.208;10.766;2022-09-12T00:17:43;95748.59;;;12.19;86.42
13407;BME280;6774;48.208;10.766;2022-09-12T00:20:11;95743.63;;;12.10;86.48
13407;BME280;6774;48.208;10.766;2022-09-12T00:22:39;95745.47;;;12.09;86.29
13407;BME280;6774;48.208;10.766;2022-09-12T00:25:07;95743.56;;;12.03;86.57
13407;BME280;6774;48.208;10.766;2022-09-12T00:27:34;95739.84;;;11.98;86.37
13407;BME280;6774;48.208;10.766;2022-09-12T00:30:04;95745.78;;;12.00;86.47
13407;BME280;6774;48.208;10.766;2022-09-12T00:32:32;95734.81;;;12.03;86.45
13407;BME280;6774;48.208;10.766;2022-09-12T00:35:00;95733.81;;;12.04;86.27
13407;BME280;6774;48.208;10.766;2022-09-12T00:37:28;95739.56;;;12.07;86.12
13407;BME280;6774;48.208;10.766;2022-09-12T00:39:56;95742.81;;;12.09;85.92
13407;BME280;6774;48.208;10.766;2022-09-12T00:42:24;95745.06;;;12.12;85.81
13407;BME280;6774;48.208;10.766;2022-09-12T00:44:52;95741.19;;;12.08;86.03
13407;BME280;6774;48.208;10.766;2022-09-12T00:47:27;95727.16;;;12.08;86.08
13407;BME280;6774;48.208;10.766;2022-09-12T00:49:59;95728.91;;;12.01;85.94
13407;BME280;6774;48.208;10.766;2022-09-12T00:52:33;95726.00;;;11.95;85.92
13407;BME280;6774;48.208;10.766;2022-09-12T00:55:04;95730.88;;;11.92;85.49
13407;BME280;6774;48.208;10.766;2022-09-12T00:57:36;95726.78;;;11.89;85.43
13407;BME280;6774;48.208;10.766;2022-09-12T01:00:09;95720.41;;;11.84;85.18
13407;BME280;6774;48.208;10.766;2022-09-12T01:02:49;95710.84;;;11.83;85.28
13407;BME280;6774;48.208;10.766;2022-09-12T01:05:19;95715.53;;;11.81;85.50
13407;BME280;6774;48.208;10.766;2022-09-12T01:07:49;95715.31;;;11.82;85.51
13407;BME280;6774;48.208;10.766;2022-09-12T01:10:17;95715.22;;;11.76;85.49
13407;BME280;6774;48.208;10.766;2022-09-12T01:12:46;95708.31;;;11.75;85.68
13407;BME280;6774;48.208;10.766;2022-09-12T01:15:15;95701.38;;;11.74;85.93
13407;BME280;6774;48.208;10.766;2022-09-12T01:17:53;95698.97;;;11.79;85.95
13407;BME280;6774;48.208;10.766;2022-09-12T01:26:41;95697.00;;;11.81;85.96
13407;BME280;6774;48.208;10.766;2022-09-12T01:29:34;95698.66;;;11.82;85.62
13407;BME280;6774;48.208;10.766;2022-09-12T01:32:14;95686.66;;;11.64;85.70
13407;BME280;6774;48.208;10.766;2022-09-12T01:34:46;95680.56;;;11.64;85.23
13407;BME280;6774;48.208;10.766;2022-09-12T01:37:25;95679.47;;;11.58;85.27
13407;BME280;6774;48.208;10.766;2022-09-12T01:40:02;95686.16;;;11.54;85.21
13407;BME280;6774;48.208;10.766;2022-09-12T01:42:40;95692.59;;;11.45;85.29
13407;BME280;6774;48.208;10.766;2022-09-12T01:45:17;95687.31;;;11.45;85.30
13407;BME280;6774;48.208;10.766;2022-09-12T01:47:50;95691.31;;;11.41;85.36
13407;BME280;6774;48.208;10.766;2022-09-12T01:50:25;95692.06;;;11.35;85.53
13407;BME280;6774;48.208;10.766;2022-09-12T01:52:56;95692.06;;;11.35;85.83
13407;BME280;6774;48.208;10.766;2022-09-12T01:55:30;95683.16;;;11.36;85.59
13407;BME280;6774;48.208;10.766;2022-09-12T01:58:04;95670.94;;;11.35;85.73
13407;BME280;6774;48.208;10.766;2022-09-12T02:00:36;95669.31;;;11.34;85.96
13407;BME280;6774;48.208;10.766;2022-09-12T02:03:10;95667.97;;;11.23;85.76
13407;BME280;6774;48.208;10.766;2022-09-12T02:05:44;95664.25;;;11.18;86.13
13407;BME280;6774;48.208;10.766;2022-09-12T02:08:16;95671.56;;;11.16;86.21
13407;BME280;6774;48.208;10.766;2022-09-12T02:10:51;95661.63;;;11.18;85.90
13407;BME280;6774;48.208;10.766;2022-09-12T02:13:23;95667.25;;;11.15;85.91
13407;BME280;6774;48.208;10.766;2022-09-12T02:15:55;95665.72;;;11.05;85.70
13407;BME280;6774;48.208;10.766;2022-09-12T02:18:29;95664.09;;;11.04;86.08
13407;BME280;6774;48.208;10.766;2022-09-12T02:21:00;95656.56;;;11.01;85.68
13407;BME280;6774;48.208;10.766;2022-09-12T02:23:30;95651.91;;;11.03;86.10
13407;BME280;6774;48.208;10.766;2022-09-12T02:26:01;95648.25;;;11.04;85.75
13407;BME280;6774;48.208;10.766;2022-09-12T02:28:32;95641.34;;;11.03;85.36
13407;BME280;6774;48.208;10.766;2022-09-12T02:31:08;95649.47;;;10.87;85.10
13407;BME280;6774;48.208;10.766;2022-09-12T02:33:45;95644.78;;;10.82;85.18
13407;BME280;6774;48.208;10.766;2022-09-12T02:36:31;95640.31;;;10.83;85.49
13407;BME280;6774;48.208;10.766;2022-09-12T02:39:00;95644.84;;;10.89;85.91
13407;BME280;6774;48.208;10.766;2022-09-12T02:41:28;95640.00;;;10.93;86.06
13407;BME280;6774;48.208;10.766;2022-09-12T02:43:56;95649.38;;;10.95;85.91
13407;BME280;6774;48.208;10.766;2022-09-12T02:46:25;95643.56;;;11.00;85.16
13407;BME280;6774;48.208;10.766;2022-09-12T02:48:56;95643.84;;;10.90;84.86
13407;BME280;6774;48.208;10.766;2022-09-12T02:51:24;95652.13;;;10.87;84.68
13407;BME280;6774;48.208;10.766;2022-09-12T02:53:52;95642.91;;;10.62;85.16
13407;BME280;6774;48.208;10.766;2022-09-12T02:56:24;95642.00;;;10.54;85.38
13407;BME280;6774;48.208;10.766;2022-09-12T02:58:55;95642.38;;;10.51;85.38
13407;BME280;6774;48.208;10.766;2022-09-12T03:01:35;95645.13;;;10.43;85.57
13407;BME280;6774;48.208;10.766;2022-09-12T03:04:21;95641.81;;;10.41;85.86
13407;BME280;6774;48.208;10.766;2022-09-12T03:07:01;95636.19;;;10.44;85.35
13407;BME280;6774;48.208;10.766;2022-09-12T03:09:36;95623.09;;;10.36;85.69
13407;BME280;6774;48.208;10.766;2022-09-12T03:12:18;95629.47;;;10.27;85.62
13407;BME280;6774;48.208;10.766;2022-09-12T03:15:06;95625.25;;;10.18;86.46
13407;BME280;6774;48.208;10.766;2022-09-12T03:17:45;95628.09;;;10.31;86.03
13407;BME280;6774;48.208;10.766;2022-09-12T03:20:23;95624.28;;;10.34;85.61
13407;BME280;6774;48.208;10.766;2022-09-12T03:22:58;95621.81;;;10.32;85.91
13407;BME280;6774;48.208;10.766;2022-09-12T03:25:33;95633.28;;;10.39;86.28
13407;BME280;6774;48.208;10.766;2022-09-12T03:28:05;95636.19;;;10.44;86.20
13407;BME280;6774;48.208;10.766;2022-09-12T03:30:37;95622.63;;;10.47;85.94
13407;BME280;6774;48.208;10.766;2022-09-12T03:33:05;95629.72;;;10.47;85.66
13407;BME280;6774;48.208;10.766;2022-09-12T03:35:34;95635.38;;;10.44;85.96
13407;BME280;6774;48.208;10.766;2022-09-12T03:38:03;95637.19;;;10.29;86.35
13407;BME280;6774;48.208;10.766;2022-09-12T03:40:33;95642.03;;;10.25;86.76
13407;BME280;6774;48.208;10.766;2022-09-12T03:43:01;95637.38;;;10.27;86.79
13407;BME280;6774;48.208;10.766;2022-09-12T03:45:29;95643.09;;;10.16;86.61
13407;BME280;6774;48.208;10.766;2022-09-12T03:47:57;95639.06;;;10.20;86.42
13407;BME280;6774;48.208;10.766;2022-09-12T03:50:25;95643.09;;;10.16;86.49
13407;BME280;6774;48.208;10.766;2022-09-12T03:52:54;95635.81;;;10.18;86.14
13407;BME280;6774;48.208;10.766;2022-09-12T03:55:22;95635.44;;;10.21;86.33
13407;BME280;6774;48.208;10.766;2022-09-12T03:57:51;95644.81;;;10.23;86.38
13407;BME280;6774;48.208;10.766;2022-09-12T04:00:19;95638.38;;;10.26;85.83
13407;BME280;6774;48.208;10.766;2022-09-12T04:02:47;95632.72;;;10.29;86.33
13407;BME280;6774;48.208;10.766;2022-09-12T04:05:15;95641.66;;;10.28;86.22
13407;BME280;6774;48.208;10.766;2022-09-12T04:07:43;95636.81;;;10.32;85.85
13407;BME280;6774;48.208;10.766;2022-09-12T04:10:12;95639.63;;;10.30;86.12
13407;BME280;6774;48.208;10.766;2022-09-12T04:12:41;95641.22;;;10.24;85.78
13407;BME280;6774;48.208;10.766;2022-09-12T04:15:09;95634.28;;;10.23;85.91
13407;BME280;6774;48.208;10.766;2022-09-12T04:17:37;95635.75;;;10.26;86.20
13407;BME280;6774;48.208;10.766;2022-09-12T04:20:05;95633.09;;;10.26;86.05
13407;BME280;6774;48.208;10.766;2022-09-12T04:22:33;95639.19;;;10.27;86.06
13407;BME280;6774;48.208;10.766;2022-09-12T04:25:01;95631.72;;;10.30;86.25
13407;BME280;6774;48.208;10.766;2022-09-12T04:27:31;95630.72;;;10.31;85.84
13407;BME280;6774;48.208;10.766;2022-09-12T04:30:00;95630.72;;;10.31;85.84
13407;BME280;6774;48.208;10.766;2022-09-12T04:32:28;95633.19;;;10.33;86.17
13407;BME280;6774;48.208;10.766;2022-09-12T04:34:57;95636.00;;;10.31;86.01
13407;BME280;6774;48.208;10.766;2022-09-12T04:37:25;95635.66;;;10.34;86.28
13407;BME280;6774;48.208;10.766;2022-09-12T04:39:53;95637.81;;;10.31;86.12
13407;BME280;6774;48.208;10.766;2022-09-12T04:42:23;95632.72;;;10.29;85.87
13407;BME280;6774;48.208;10.766;2022-09-12T04:44:52;95627.66;;;10.28;85.75
13407;BME280;6774;48.208;10.766;2022-09-12T04:47:20;95627.47;;;10.29;86.08
13407;BME280;6774;48.208;10.766;2022-09-12T04:49:48;95628.03;;;10.24;86.28
13407;BME280;6774;48.208;10.766;2022-09-12T04:52:16;95629.47;;;10.27;86.17
13407;BME280;6774;48.208;10.766;2022-09-12T04:54:44;95632.28;;;10.25;86.26
13407;BME280;6774;48.208;10.766;2022-09-12T04:57:12;95636.09;;;10.23;85.87
13407;BME280;6774;48.208;10.766;2022-09-12T04:59:41;95628.53;;;10.20;86.06
13407;BME280;6774;48.208;10.766;2022-09-12T05:02:10;95635.81;;;10.18;85.88
13407;BME280;6774;48.208;10.766;2022-09-12T05:04:37;95631.72;;;10.15;85.58
13407;BME280;6774;48.208;10.766;2022-09-12T05:07:05;95627.25;;;10.16;85.28
13407;BME280;6774;48.208;10.766;2022-09-12T05:09:33;95634.16;;;10.17;85.15
13407;BME280;6774;48.208;10.766;2022-09-12T05:12:02;95640.69;;;10.21;85.26
13407;BME280;6774;48.208;10.766;2022-09-12T05:14:31;95642.03;;;10.25;85.10
13407;BME280;6774;48.208;10.766;2022-09-12T05:16:59;95642.47;;;10.29;85.29
13407;BME280;6774;48.208;10.766;2022-09-12T05:19:29;95643.56;;;10.34;85.04
13407;BME280;6774;48.208;10.766;2022-09-12T05:21:57;95656.81;;;10.41;85.20
13407;BME280;6774;48.208;10.766;2022-09-12T05:24:26;95648.75;;;10.42;85.12
13407;BME280;6774;48.208;10.766;2022-09-12T05:26:54;95649.63;;;10.49;84.99
13407;BME280;6774;48.208;10.766;2022-09-12T05:29:22;95647.66;;;10.51;84.49
13407;BME280;6774;48.208;10.766;2022-09-12T05:31:51;95647.38;;;10.61;84.07
13407;BME280;6774;48.208;10.766;2022-09-12T05:34:19;95646.25;;;10.70;83.97
13407;BME280;6774;48.208;10.766;2022-09-12T05:36:48;95647.78;;;10.79;83.93
13407;BME280;6774;48.208;10.766;2022-09-12T05:39:16;95650.97;;;10.90;83.77
13407;BME280;6774;48.208;10.766;2022-09-12T05:41:44;95656.75;;;11.00;83.27
13407;BME280;6774;48.208;10.766;2022-09-12T05:44:13;95652.53;;;11.05;82.88
13407;BME280;6774;48.208;10.766;2022-09-12T05:46:43;95654.88;;;11.15;82.78
13407;BME280;6774;48.208;10.766;2022-09-12T05:49:12;95659.22;;;11.23;82.50
13407;BME280;6774;48.208;10.766;2022-09-12T05:51:42;95666.78;;;11.26;82.15
13407;BME280;6774;48.208;10.766;2022-09-12T05:54:14;95658.28;;;11.30;82.28
13407;BME280;6774;48.208;10.766;2022-09-12T05:56:43;95664.03;;;11.34;81.95
13407;BME280;6774;48.208;10.766;2022-09-12T05:59:13;95656.34;;;11.39;81.80
13407;BME280;6774;48.208;10.766;2022-09-12T06:01:42;95669.81;;;11.44;81.98
13407;BME280;6774;48.208;10.766;2022-09-12T06:04:11;95674.59;;;11.55;81.77
13407;BME280;6774;48.208;10.766;2022-09-12T06:06:40;95673.88;;;11.68;81.75
13407;BME280;6774;48.208;10.766;2022-09-12T06:09:14;95674.22;;;11.80;81.65
13407;BME280;6774;48.208;10.766;2022-09-12T06:11:44;95673.91;;;11.89;81.59
13407;BME280;6774;48.208;10.766;2022-09-12T06:14:14;95674.13;;;11.94;82.16
13407;BME280;6774;48.208;10.766;2022-09-12T06:16:43;95671.97;;;12.05;82.13
13407;BME280;6774;48.208;10.766;2022-09-12T06:19:13;95674.06;;;12.16;82.15
13407;BME280;6774;48.208;10.766;2022-09-12T06:21:42;95665.56;;;12.20;82.66
13407;BME280;6774;48.208;10.766;2022-09-12T06:24:12;95665.63;;;12.34;82.73
13407;BME280;6774;48.208;10.766;2022-09-12T06:26:40;95664.88;;;12.40;83.08
13407;BME280;6774;48.208;10.766;2022-09-12T06:29:10;95666.44;;;12.62;82.67
13407;BME280;6774;48.208;10.766;2022-09-12T06:31:40;95656.72;;;12.76;82.62
13407;BME280;6774;48.208;10.766;2022-09-12T06:34:09;95659.97;;;12.71;83.50
13407;BME280;6774;48.208;10.766;2022-09-12T06:36:40;95662.03;;;12.89;83.97
13407;BME280;6774;48.208;10.766;2022-09-12T06:39:12;95657.84;;;13.08;83.97
13407;BME280;6774;48.208;10.766;2022-09-12T06:41:40;95664.88;;;13.29;83.20
13407;BME280;6774;48.208;10.766;2022-09-12T06:44:11;95661.84;;;13.45;83.17
13407;BME280;6774;48.208;10.766;2022-09-12T06:46:39;95664.31;;;13.60;83.22
13407;BME280;6774;48.208;10.766;2022-09-12T06:49:07;95660.03;;;13.79;83.28
13407;BME280;6774;48.208;10.766;2022-09-12T06:51:35;95658.59;;;13.96;82.57
13407;BME280;6774;48.208;10.766;2022-09-12T06:54:04;95662.09;;;14.10;82.33
13407;BME280;6774;48.208;10.766;2022-09-12T06:56:33;95662.06;;;14.23;81.92
13407;BME280;6774;48.208;10.766;2022-09-12T06:59:01;95659.19;;;14.31;81.61
13407;BME280;6774;48.208;10.766;2022-09-12T07:01:30;95668.56;;;14.40;81.39
13407;BME280;6774;48.208;10.766;2022-09-12T07:03:59;95661.22;;;14.56;81.00
13407;BME280;6774;48.208;10.766;2022-09-12T07:06:30;95655.06;;;14.62;81.01
13407;BME280;6774;48.208;10.766;2022-09-12T07:09:00;95663.41;;;14.72;80.74
13407;BME280;6774;48.208;10.766;2022-09-12T07:11:30;95663.16;;;14.80;81.07
13407;BME280;6774;48.208;10.766;2022-09-12T07:14:01;95661.91;;;14.89;80.88
13407;BME280;6774;48.208;10.766;2022-09-12T07:16:30;95660.31;;;14.82;81.21
13407;BME280;6774;48.208;10.766;2022-09-12T07:19:00;95659.38;;;15.07;80.80
13407;BME280;6774;48.208;10.766;2022-09-12T07:21:28;95663.41;;;15.17;81.19
13407;BME280;6774;48.208;10.766;2022-09-12T07:23:57;95653.91;;;15.34;80.63
13407;BME280;6774;48.208;10.766;2022-09-12T07:26:26;95654.72;;;15.41;80.75
13407;BME280;6774;48.208;10.766;2022-09-12T07:28:56;95658.31;;;15.53;81.16
13407;BME280;6774;48.208;10.766;2022-09-12T07:31:46;95656.44;;;15.60;81.00
13407;BME280;6774;48.208;10.766;2022-09-12T07:34:13;95652.09;;;15.73;80.59
13407;BME280;6774;48.208;10.766;2022-09-12T07:36:43;95649.03;;;15.94;80.00
13407;BME280;6774;48.208;10.766;2022-09-12T07:39:11;95657.13;;;16.06;79.76
13407;BME280;6774;48.208;10.766;2022-09-12T07:41:39;95651.47;;;16.20;79.63
13407;BME280;6774;48.208;10.766;2022-09-12T07:44:07;95653.59;;;16.37;79.51
13407;BME280;6774;48.208;10.766;2022-09-12T07:46:35;95658.31;;;16.53;79.27
13407;BME280;6774;48.208;10.766;2022-09-12T07:49:04;95661.47;;;16.68;78.78
13407;BME280;6774;48.208;10.766;2022-09-12T07:51:34;95661.31;;;16.82;77.66
13407;BME280;6774;48.208;10.766;2022-09-12T07:54:06;95653.31;;;17.00;77.39
13407;BME280;6774;48.208;10.766;2022-09-12T07:56:34;95660.56;;;17.11;76.88
13407;BME280;6774;48.208;10.766;2022-09-12T07:59:05;95646.94;;;17.19;77.37
13407;BME280;6774;48.208;10.766;2022-09-12T08:01:33;95656.06;;;17.42;77.44
13407;BME280;6774;48.208;10.766;2022-09-12T08:04:02;95648.00;;;17.60;77.09
13407;BME280;6774;48.208;10.766;2022-09-12T08:06:33;95653.88;;;17.80;77.07
13407;BME280;6774;48.208;10.766;2022-09-12T08:09:03;95652.31;;;18.03;77.19
13407;BME280;6774;48.208;10.766;2022-09-12T08:11:31;95655.22;;;18.25;76.49
13407;BME280;6774;48.208;10.766;2022-09-12T08:13:58;95663.94;;;18.43;75.32
13407;BME280;6774;48.208;10.766;2022-09-12T08:16:29;95660.09;;;18.63;72.57
13407;BME280;6774;48.208;10.766;2022-09-12T08:18:59;95664.06;;;18.84;71.30
13407;BME280;6774;48.208;10.766;2022-09-12T08:21:29;95661.34;;;18.95;72.00
13407;BME280;6774;48.208;10.766;2022-09-12T08:24:02;95659.66;;;19.18;71.35
13407;BME280;6774;48.208;10.766;2022-09-12T08:26:31;95662.16;;;19.36;71.30
13407;BME280;6774;48.208;10.766;2022-09-12T08:28:59;95662.91;;;19.60;71.41
13407;BME280;6774;48.208;10.766;2022-09-12T08:31:27;95659.09;;;19.73;70.03
13407;BME280;6774;48.208;10.766;2022-09-12T08:33:57;95657.63;;;19.94;69.15
13407;BME280;6774;48.208;10.766;2022-09-12T08:36:27;95654.28;;;20.03;69.44
13407;BME280;6774;48.208;10.766;2022-09-12T08:38:56;95651.69;;;20.25;68.80
13407;BME280;6774;48.208;10.766;2022-09-12T08:41:30;95659.38;;;20.55;67.35
13407;BME280;6774;48.208;10.766;2022-09-12T08:44:29;95652.38;;;20.71;67.69
13407;BME280;6774;48.208;10.766;2022-09-12T08:47:15;95653.75;;;20.73;64.79
13407;BME280;6774;48.208;10.766;2022-09-12T08:49:51;95655.69;;;21.00;66.93
13407;BME280;6774;48.208;10.766;2022-09-12T08:52:25;95653.59;;;21.24;65.75
13407;BME280;6774;48.208;10.766;2022-09-12T08:54:55;95649.03;;;21.46;64.59
13407;BME280;6774;48.208;10.766;2022-09-12T08:57:25;95651.47;;;21.75;65.30
13407;BME280;6774;48.208;10.766;2022-09-12T08:59:53;95642.81;;;21.95;63.37
13407;BME280;6774;48.208;10.766;2022-09-12T09:02:58;95648.38;;;22.20;63.05
13407;BME280;6774;48.208;10.766;2022-09-12T09:05:41;95654.69;;;22.36;61.50
13407;BME280;6774;48.208;10.766;2022-09-12T09:08:23;95647.50;;;22.47;60.57
13407;BME280;6774;48.208;10.766;2022-09-12T09:11:03;95655.91;;;22.55;60.11
13407;BME280;6774;48.208;10.766;2022-09-12T09:13:51;95649.00;;;22.69;60.68
13407;BME280;6774;48.208;10.766;2022-09-12T09:16:41;95640.84;;;22.96;60.00
13407;BME280;6774;48.208;10.766;2022-09-12T09:19:14;95634.69;;;23.06;59.79
13407;BME280;6774;48.208;10.766;2022-09-12T09:21:46;95642.19;;;23.04;59.01
13407;BME280;6774;48.208;10.766;2022-09-12T09:24:19;95640.44;;;23.40;59.57
13407;BME280;6774;48.208;10.766;2022-09-12T09:26:55;95638.63;;;23.51;58.16
13407;BME280;6774;48.208;10.766;2022-09-12T09:29:28;95637.34;;;23.79;58.27
13407;BME280;6774;48.208;10.766;2022-09-12T09:31:59;95634.66;;;23.94;58.35
13407;BME280;6774;48.208;10.766;2022-09-12T09:34:29;95630.63;;;24.12;57.35
13407;BME280;6774;48.208;10.766;2022-09-12T09:37:01;95631.72;;;24.47;56.51
13407;BME280;6774;48.208;10.766;2022-09-12T09:39:42;95627.63;;;24.75;55.90
13407;BME280;6774;48.208;10.766;2022-09-12T09:42:24;95630.19;;;25.20;55.88
13407;BME280;6774;48.208;10.766;2022-09-12T09:44:57;95623.69;;;25.27;53.82
13407;BME280;6774;48.208;10.766;2022-09-12T09:47:26;95611.38;;;25.49;53.03
13407;BME280;6774;48.208;10.766;2022-09-12T09:49:53;95622.47;;;25.53;54.35
13407;BME280;6774;48.208;10.766;2022-09-12T09:52:24;95615.59;;;25.76;53.90
13407;BME280;6774;48.208;10.766;2022-09-12T09:54:56;95602.78;;;25.92;54.47
13407;BME280;6774;48.208;10.766;2022-09-12T09:57:38;95614.88;;;26.33;54.66
13407;BME280;6774;48.208;10.766;2022-09-12T10:00:26;95614.25;;;26.47;51.95
13407;BME280;6774;48.208;10.766;2022-09-12T10:03:02;95617.13;;;26.55;50.62
13407;BME280;6774;48.208;10.766;2022-09-12T10:05:44;95617.59;;;26.86;51.54
13407;BME280;6774;48.208;10.766;2022-09-12T10:08:21;95614.31;;;27.18;50.73
13407;BME280;6774;48.208;10.766;2022-09-12T10:10:54;95602.84;;;27.45;49.38
13407;BME280;6774;48.208;10.766;2022-09-12T10:13:27;95603.13;;;27.63;50.75
13407;BME280;6774;48.208;10.766;2022-09-12T10:16:00;95603.84;;;27.49;47.41
13407;BME280;6774;48.208;10.766;2022-09-12T10:18:37;95604.19;;;27.67;48.02
13407;BME280;6774;48.208;10.766;2022-09-12T10:21:28;95605.91;;;27.95;49.16
13407;BME280;6774;48.208;10.766;2022-09-12T10:24:01;95607.59;;;28.10;47.01
13407;BME280;6774;48.208;10.766;2022-09-12T10:26:33;95600.75;;;28.13;45.82
13407;BME280;6774;48.208;10.766;2022-09-12T10:29:14;95611.16;;;28.24;45.79
13407;BME280;6774;48.208;10.766;2022-09-12T10:31:50;95609.69;;;28.32;46.03
13407;BME280;6774;48.208;10.766;2022-09-12T10:34:26;95603.50;;;28.45;46.97
13407;BME280;6774;48.208;10.766;2022-09-12T10:37:02;95606.03;;;28.55;45.98
13407;BME280;6774;48.208;10.766;2022-09-12T10:39:31;95597.56;;;28.89;45.95
13407;BME280;6774;48.208;10.766;2022-09-12T10:42:01;95593.09;;;29.07;45.09
13407;BME280;6774;48.208;10.766;2022-09-12T10:44:32;95595.53;;;29.23;45.69
13407;BME280;6774;48.208;10.766;2022-09-12T10:47:18;95594.41;;;29.24;44.19
13407;BME280;6774;48.208;10.766;2022-09-12T10:49:46;95583.03;;;29.22;44.36
13407;BME280;6774;48.208;10.766;2022-09-12T10:52:21;95590.41;;;29.21;44.30
13407;BME280;6774;48.208;10.766;2022-09-12T10:54:50;95584.16;;;29.21;43.68
13407;BME280;6774;48.208;10.766;2022-09-12T10:57:35;95579.44;;;29.12;43.55
13407;BME280;6774;48.208;10.766;2022-09-12T11:00:11;95578.03;;;29.01;45.26
13407;BME280;6774;48.208;10.766;2022-09-12T11:02:57;95580.44;;;29.03;44.54
13407;BME280;6774;48.208;10.766;2022-09-12T11:05:37;95574.22;;;29.02;44.77
13407;BME280;6774;48.208;10.766;2022-09-12T11:08:15;95576.81;;;28.94;44.81
13407;BME280;6774;48.208;10.766;2022-09-12T11:10:51;95572.88;;;28.86;44.73
13407;BME280;6774;48.208;10.766;2022-09-12T11:13:42;95578.75;;;28.93;46.15
13407;BME280;6774;48.208;10.766;2022-09-12T11:16:20;95568.28;;;29.00;47.04
13407;BME280;6774;48.208;10.766;2022-09-12T11:19:05;95565.16;;;28.93;45.34
13407;BME280;6774;48.208;10.766;2022-09-12T11:21:47;95569.78;;;28.93;45.69
13407;BME280;6774;48.208;10.766;2022-09-12T11:24:40;95561.25;;;28.53;45.34
13407;BME280;6774;48.208;10.766;2022-09-12T11:27:23;95568.25;;;28.26;46.67
13407;BME280;6774;48.208;10.766;2022-09-12T11:29:58;95552.69;;;27.99;46.90
13407;BME280;6774;48.208;10.766;2022-09-12T11:32:36;95559.03;;;27.76;49.36
13407;BME280;6774;48.208;10.766;2022-09-12T11:35:17;95559.69;;;27.68;48.20
13407;BME280;6774;48.208;10.766;2022-09-12T11:37:55;95567.50;;;27.50;47.28
13407;BME280;6774;48.208;10.766;2022-09-12T11:40:28;95553.00;;;27.41;48.58
13407;BME280;6774;48.208;10.766;2022-09-12T11:43:02;95558.88;;;27.30;49.21
13407;BME280;6774;48.208;10.766;2022-09-12T11:45:38;95563.75;;;27.09;48.10
13407;BME280;6774;48.208;10.766;2022-09-12T11:48:12;95561.97;;;26.99;49.25
13407;BME280;6774;48.208;10.766;2022-09-12T11:50:44;95559.44;;;26.84;48.14
13407;BME280;6774;48.208;10.766;2022-09-12T11:53:17;95560.00;;;26.57;49.00
13407;BME280;6774;48.208;10.766;2022-09-12T11:55:51;95562.84;;;26.42;51.30
13407;BME280;6774;48.208;10.766;2022-09-12T11:58:26;95564.28;;;26.34;49.89
13407;BME280;6774;48.208;10.766;2022-09-12T12:00:58;95567.16;;;26.14;50.68
13407;BME280;6774;48.208;10.766;2022-09-12T12:03:35;95562.66;;;26.04;49.71
13407;BME280;6774;48.208;10.766;2022-09-12T12:06:10;95565.50;;;25.89;51.27
13407;BME280;6774;48.208;10.766;2022-09-12T12:08:41;95566.09;;;25.80;51.15
13407;BME280;6774;48.208;10.766;2022-09-12T12:11:11;95564.50;;;25.74;51.38
13407;BME280;6774;48.208;10.766;2022-09-12T12:13:46;95564.50;;;25.69;52.48
13407;BME280;6774;48.208;10.766;2022-09-12T12:16:19;95560.59;;;25.51;51.72
13407;BME280;6774;48.208;10.766;2022-09-12T12:18:53;95564.16;;;25.42;51.26
13407;BME280;6774;48.208;10.766;2022-09-12T12:21:36;95558.72;;;25.47;51.16
13407;BME280;6774;48.208;10.766;2022-09-12T12:24:14;95554.84;;;25.63;50.79
13407;BME280;6774;48.208;10.766;2022-09-12T12:26:53;95554.72;;;25.84;50.49
13407;BME280;6774;48.208;10.766;2022-09-12T12:29:39;95540.59;;;25.92;49.50
13407;BME280;6774;48.208;10.766;2022-09-12T12:32:25;95540.59;;;25.92;48.89
13407;BME280;6774;48.208;10.766;2022-09-12T12:38:03;95535.34;;;25.66;50.74
13407;BME280;6774;48.208;10.766;2022-09-12T12:40:32;95527.84;;;25.58;50.08
13407;BME280;6774;48.208;10.766;2022-09-12T12:43:04;95526.94;;;25.34;51.30
13407;BME280;6774;48.208;10.766;2022-09-12T12:49:03;95517.63;;;25.11;51.24
13407;BME280;6774;48.208;10.766;2022-09-12T12:51:41;95511.91;;;25.17;50.43
13407;BME280;6774;48.208;10.766;2022-09-12T12:54:29;95511.41;;;25.10;49.60
13407;BME280;6774;48.208;10.766;2022-09-12T12:57:14;95514.69;;;25.02;50.14
13407;BME280;6774;48.208;10.766;2022-09-12T12:59:49;95517.41;;;24.97;51.37
13407;BME280;6774;48.208;10.766;2022-09-12T13:02:21;95511.44;;;25.00;50.30
13407;BME280;6774;48.208;10.766;2022-09-12T13:04:50;95502.81;;;24.98;51.53
13407;BME280;6774;48.208;10.766;2022-09-12T13:07:25;95505.53;;;24.93;51.55
13407;BME280;6774;48.208;10.766;2022-09-12T13:09:56;95501.50;;;24.90;52.31
13407;BME280;6774;48.208;10.766;2022-09-12T13:12:26;95498.56;;;24.82;52.55
13407;BME280;6774;48.208;10.766;2022-09-12T13:14:56;95491.63;;;24.65;53.08
13407;BME280;6774;48.208;10.766;2022-09-12T13:17:29;95490.03;;;24.59;51.77
13407;BME280;6774;48.208;10.766;2022-09-12T13:20:06;95494.09;;;24.57;51.38
13407;BME280;6774;48.208;10.766;2022-09-12T13:22:54;95476.28;;;24.61;49.47
13407;BME280;6774;48.208;10.766;2022-09-12T13:25:27;95479.56;;;24.53;49.97
13407;BME280;6774;48.208;10.766;2022-09-12T13:28:00;95475.22;;;24.57;49.91
13407;BME280;6774;48.208;10.766;2022-09-12T13:30:31;95474.91;;;24.63;51.08
13407;BME280;6774;48.208;10.766;2022-09-12T13:33:09;95472.50;;;24.62;51.38
13407;BME280;6774;48.208;10.766;2022-09-12T13:35:48;95474.91;;;24.58;51.34
13407;BME280;6774;48.208;10.766;2022-09-12T13:38:25;95465.72;;;24.70;50.94
13407;BME280;6774;48.208;10.766;2022-09-12T13:41:15;95459.19;;;24.81;50.46